Airfield :
LOGIN :

Register | Disclaimer

   EN    FR    IT 

 










Legend :    VFR   Marginal VFR   IFR   Intensive IFR   Very Intensive IFR
Visi :
Ceiling :
>= 8 km
>= 3000ft
5 to 8 km
1000 to 3000 ft
1500m to 5 km
500 to 1000 ft
800 to 1500m
200 to 500 ft
< 800m
< 200 ft
Symbols :   Thunderstorms  Fog  Heavy snow  Heavy precipitations  Wind > 20 kt
SIGMETs :     Misc.  Thunderstorms  Icing  Turbulence  Mountain Waves  Volcanic Ashes







- Airport Elevation : 49 ft
- IATA code : SEN
- Download approach charts


EGMC - Southend

CURRENT METAR :
  • 181750Z 22008KT 9999 SCT022 08/05 Q1014

EXPIRED METARs :
  • 181720Z 22010KT 9999 SCT022 08/05 Q1014
  • 181650Z 21009KT 9999 VCSH FEW010 BKN022 09/05 Q1014
  • 181620Z 21008KT 9999 VCSH FEW010 BKN022 09/05 Q1014
  • 181550Z 22008KT 9999 FEW010 BKN022 09/05 Q1014
  • 181520Z 24009KT 9999 -RA BKN021 09/05 Q1014

TAF TAF EGMC
Valid from the 18 at 18:00 until the 19 at 03:00 UTC


181656Z 1818/1903 24010KT 9999 SCT015
TEMPO 1818/1821 7000 SHRA BKN009
No reported NOTAMs for that airfield.



MET'MAP, your aeronautical weather chart ! - Copyright ORBIFLY December 2007 - Disclaimer

ORBIFLY MET'MAP TEAM :

Programming & Development : Alexandra Zaïnal
Concept & Development : Baudouin d'Aumeries
Co-Development & Prog : Marc-Olivier Méhu
Technical & hardware support : Manuel Goepfert

Contact : metmap@orbifly.com




SOURCES & CREDITS :

   NOAA